Impacts METAR Board
IDs:

KTPA - Tampa Intl Arpt, FL, US

Updated at: 2300 UTC 30 Jun 2022
Potential Impact None Slight Moderate High
Time 30/11Z 30/12Z 30/13Z 30/14Z 30/15Z 30/16Z 30/17Z 30/18Z 30/19Z 30/20Z 30/21Z 30/22Z 30/23Z
Temp80 82 84 87 88 89 90 92 91 89 92 86 89
Dewpt74 74 74 73 73 73 73 75 74 73 76 70 71
Altim30.12 30.13 30.14 30.15 30.14 30.14 30.12 30.10 30.08 30.07 30.07 30.07 30.06
VIS10 10 10 10 10 10 10 10 10 10 10 10 10
CIG200 -- -- -- -- -- -- -- -- 250 100 32 220
CoverBKNSCTSCTSCTSCTSCTSCTSCTSCTBKNBKNBKNBKN
FltCatVFRVFRVFRVFRVFRVFRVFRVFRVFRVFRVFRVFRVFR
WX--------------VCTSVCTS--TSTS--
WDir505000200220230230270290290120200
WSpd3 3 0 3 3 7 6 6 14 10 10 8 6
WGst-- -- -- -- -- -- -- -- -- -- 20 19 --
Raw hourly METARs
KTPA 301053Z 05003KT 10SM BKN200 27/23 A3012 RMK AO2 SLP198 T02670233
KTPA 301153Z 05003KT 10SM FEW090 SCT200 28/23 A3013 RMK AO2 SLP202 70004 T02780233 10278 20267 53007
KTPA 301253Z 00000KT 10SM FEW020 FEW090 SCT250 29/23 A3014 RMK AO2 SLP206 CB DSNT W T02890233
KTPA 301353Z VRB03KT 10SM FEW025 FEW100 SCT250 31/23 A3015 RMK AO2 SLP208 T03060228
KTPA 301453Z 20003KT 10SM R19R/4000VP6000FT SCT035 SCT250 31/23 A3014 RMK AO2 SLP207 T03110228 50004
KTPA 301553Z 22007KT 10SM SCT035 SCT250 32/23 A3014 RMK AO2 SLP204 CB DSNT W T03170228
KTPA 301653Z 23006KT 10SM SCT035 32/23 A3012 RMK AO2 SLP200 CB DSNT N-NE AND SW T03220228 $
KTPA 301803Z 23006KT 10SM VCTS SCT038TCU 33/24 A3010 RMK AO2 LTG DSNT W TSE1757 CB DSNT SW-NW TCU NW-E T03330239
KTPA 301853Z 27014KT 10SM VCTS SCT040TCU 33/23 A3008 RMK AO2 TSE1757 SLP185 CB DSNT W-NW TCU NW-SE T03280233
KTPA 301953Z 29010KT 10SM FEW020 SCT040TCU BKN250 32/23 A3007 RMK AO2 LTG DSNT SE AND S AND NW SLP181 CB DSNT NW-SE TCU N-NE SHRA DSNT NW T03170228
KTPA 302053Z 29010G20KT 10SM TS FEW015 SCT040CB BKN100 BKN250 33/24 A3007 RMK AO2 LTG DSNT NE-SE TSB20 SLP181 OCNL LTGCG NE-SE TS NE-SE MOV W VCSH NE-SE T03330244 55012
KTPA 302153Z 12008G19KT 10SM TS FEW012 BKN032CB BKN100 BKN250 30/21 A3007 RMK AO2 LTG DSNT NE-S SLP183 OCNL LTGCG E-S TS E-S MOV W CB DSNT NE VCSH E-S T03000211
KTPA 302253Z 20006KT 10SM FEW015 FEW032TCU SCT070 BKN220 32/22 A3006 RMK AO2 LTG DSNT N AND NE AND S TSE19 SLP178 CB DSNT N AND S TCU W T03170217



Page loaded:  23:39 UTC  |   04:39 PM Pacific  |   05:39 PM Mountain  |   06:39 PM Central  |   07:39 PM Eastern

 

ADVISORIES

FORECASTS

FORECASTS

OBSERVATIONS

USER TOOLS

ABOUT US